Time;durP1;ratioP1;P1;durP2;ratioP2;P2;SDS_P1;SDS_P2;PMS_P1;PMS_P2;Temp;Humidity;BMP_temperature;BMP_pressure;BME280_temperature;BME280_humidity;BME280_pressure;Samples;Min_cycle;Max_cycle;Signal;HPM_P1;HPM_P2
2023/01/30 00:00:51;;;;;;;41.35;6.70;;;;;;;8.68;96.93;99037.06;5055093;28;20024;-68
2023/01/30 00:03:17;;;;;;;54.20;7.68;;;;;;;8.50;96.50;99042.47;5021108;28;20033;-69
2023/01/30 00:05:42;;;;;;;51.75;7.35;;;;;;;8.59;96.36;99038.44;5055278;28;20498;-68
2023/01/30 00:08:08;;;;;;;46.30;7.30;;;;;;;8.55;96.52;99018.50;5053978;28;20036;-68
2023/01/30 00:10:33;;;;;;;46.45;7.20;;;;;;;8.58;95.86;99026.09;5053569;28;20029;-68
2023/01/30 00:12:58;;;;;;;56.33;8.70;;;;;;;8.60;95.22;99023.97;5054551;28;20024;-69
2023/01/30 00:15:24;;;;;;;47.05;6.55;;;;;;;8.57;95.64;99021.75;5055020;28;20029;-68
2023/01/30 00:17:49;;;;;;;54.85;7.63;;;;;;;8.57;95.26;99017.19;5054489;28;20025;-69
2023/01/30 00:20:15;;;;;;;39.85;5.25;;;;;;;8.38;95.59;99015.66;5053370;28;20144;-68
2023/01/30 00:22:40;;;;;;;46.38;7.53;;;;;;;8.34;94.86;99023.28;5053785;28;20033;-68
2023/01/30 00:25:06;;;;;;;40.85;6.68;;;;;;;8.44;94.63;99010.22;5020616;28;20123;-68
2023/01/30 00:27:31;;;;;;;34.38;5.60;;;;;;;8.43;94.10;99013.91;5054733;28;20055;-68
2023/01/30 00:29:57;;;;;;;30.15;5.75;;;;;;;8.33;93.32;99005.59;5054290;28;20036;-68
2023/01/30 00:32:25;;;;;;;45.00;6.13;;;;;;;8.38;92.70;99013.78;5053725;28;20029;-68
2023/01/30 00:34:50;;;;;;;33.72;6.30;;;;;;;8.18;92.98;99006.00;5055266;28;20028;-68
2023/01/30 00:37:16;;;;;;;36.40;5.60;;;;;;;8.18;92.42;99021.28;5053565;28;20025;-68
2023/01/30 00:39:41;;;;;;;34.08;5.47;;;;;;;8.27;90.83;99016.41;5054468;28;20094;-68
2023/01/30 00:47:36;;;;;;;22.75;3.60;;;;;;;8.06;87.29;98996.28;5053798;28;20105;-68
2023/01/30 00:50:02;;;;;;;24.58;5.03;;;;;;;8.11;86.29;98996.41;5035793;28;20029;-68
2023/01/30 00:52:27;;;;;;;26.33;3.88;;;;;;;8.16;86.00;99008.09;5054722;28;20033;-68
2023/01/30 00:54:53;;;;;;;39.55;5.65;;;;;;;8.23;85.07;99000.78;5052497;28;20051;-68
2023/01/30 00:57:18;;;;;;;34.05;6.47;;;;;;;8.22;85.32;98991.09;5048514;28;20480;-68
2023/01/30 00:59:44;;;;;;;35.03;5.18;;;;;;;8.12;85.36;98974.78;5059262;28;20033;-68
2023/01/30 01:02:09;;;;;;;30.08;5.50;;;;;;;8.11;86.05;99002.63;5036542;28;20033;-68
2023/01/30 01:04:42;;;;;;;24.60;4.78;;;;;;;8.10;84.75;98992.91;5054171;28;20041;-68
2023/01/30 01:07:08;;;;;;;28.95;4.78;;;;;;;8.07;85.23;98989.88;5054580;28;20029;-68
2023/01/30 01:09:34;;;;;;;35.95;6.43;;;;;;;8.01;84.50;98986.25;5054299;28;20028;-68
2023/01/30 01:11:59;;;;;;;33.05;5.32;;;;;;;8.14;84.26;98975.34;5054641;28;20035;-68
2023/01/30 01:14:25;;;;;;;31.33;4.97;;;;;;;8.30;83.53;98973.06;5054531;28;20468;-68
2023/01/30 01:16:50;;;;;;;35.40;5.82;;;;;;;8.24;83.59;98978.31;5052669;28;20047;-68
2023/01/30 01:19:16;;;;;;;34.40;5.88;;;;;;;8.30;84.83;98973.88;5019915;28;20057;-68
2023/01/30 01:21:41;;;;;;;36.78;6.07;;;;;;;8.24;84.56;98969.44;5053416;28;20033;-68
2023/01/30 01:24:11;;;;;;;30.95;5.25;;;;;;;8.08;85.97;98968.25;5052889;28;20053;-68
2023/01/30 01:26:37;;;;;;;42.80;5.78;;;;;;;7.89;86.19;98958.63;5054125;28;20472;-68
2023/01/30 01:29:02;;;;;;;40.65;6.30;;;;;;;8.13;84.74;98970.22;5035627;28;20037;-68
2023/01/30 01:31:28;;;;;;;42.55;7.15;;;;;;;7.92;84.77;98952.81;5052310;28;20025;-68
2023/01/30 01:33:53;;;;;;;46.85;6.70;;;;;;;8.12;84.69;98982.00;5053293;28;20028;-68
2023/01/30 01:36:19;;;;;;;35.92;5.80;;;;;;;8.10;83.91;98973.34;5051934;28;20033;-69
2023/01/30 01:38:44;;;;;;;37.03;5.47;;;;;;;8.17;84.16;98972.22;5052741;28;20129;-68
2023/01/30 01:41:13;;;;;;;29.40;5.28;;;;;;;8.07;83.82;98949.69;5053210;28;20040;-68
2023/01/30 01:44:05;;;;;;;39.88;6.90;;;;;;;7.98;83.73;98960.75;5035424;28;20383;-68
2023/01/30 01:46:55;;;;;;;32.55;5.50;;;;;;;8.05;83.25;98963.34;5051859;28;20328;-68
2023/01/30 01:49:29;;;;;;;41.65;6.40;;;;;;;8.17;83.25;98958.00;5049273;28;20028;-68
2023/01/30 01:52:02;;;;;;;37.35;5.70;;;;;;;8.00;84.31;98939.09;5052743;28;20044;-68
2023/01/30 01:54:37;;;;;;;44.58;6.13;;;;;;;7.87;85.34;98948.13;5055164;28;20035;-68
2023/01/30 01:57:10;;;;;;;26.85;4.28;;;;;;;7.98;85.17;98971.47;5053190;28;20100;-68
2023/01/30 01:59:44;;;;;;;29.55;4.80;;;;;;;8.08;85.09;98959.38;5051376;28;20063;-68
2023/01/30 02:02:13;;;;;;;41.22;6.07;;;;;;;8.10;84.04;98962.63;5052875;28;20112;-68
2023/01/30 02:05:03;;;;;;;36.88;5.90;;;;;;;8.11;83.75;98949.03;5052582;28;20021;-68
2023/01/30 02:07:32;;;;;;;35.50;6.80;;;;;;;7.94;84.80;98940.00;5051761;28;20021;-67
2023/01/30 02:09:58;;;;;;;33.60;6.07;;;;;;;8.06;84.92;98951.56;5056770;28;20041;-68
2023/01/30 02:12:24;;;;;;;48.38;7.72;;;;;;;7.96;85.80;98956.66;5053617;28;20028;-68
2023/01/30 02:14:50;;;;;;;46.53;6.65;;;;;;;7.98;84.93;98938.50;5053240;28;20033;-68
2023/01/30 02:17:17;;;;;;;40.20;6.70;;;;;;;8.21;84.47;98937.72;5052159;28;20205;-67
2023/01/30 02:20:15;;;;;;;36.83;6.38;;;;;;;8.12;83.94;98925.75;5051986;28;20057;-67
2023/01/30 02:22:50;;;;;;;27.58;4.45;;;;;;;8.07;84.21;98920.22;5052596;28;20037;-67
2023/01/30 02:25:48;;;;;;;28.48;4.80;;;;;;;8.10;83.61;98925.94;5052769;28;20058;-68
2023/01/30 02:28:19;;;;;;;33.95;5.68;;;;;;;8.04;83.17;98926.84;5048543;28;20037;-68
2023/01/30 02:31:08;;;;;;;26.15;4.18;;;;;;;8.09;82.69;98907.44;5052948;28;20119;-67
2023/01/30 02:33:55;;;;;;;27.17;5.07;;;;;;;7.85;82.56;98896.66;5053102;28;20044;-67
2023/01/30 02:36:33;;;;;;;29.70;4.75;;;;;;;7.99;82.01;98918.72;5052101;28;20037;-68
2023/01/30 02:39:09;;;;;;;32.00;4.75;;;;;;;8.11;80.64;98916.03;5052489;28;20024;-68
2023/01/30 02:41:47;;;;;;;36.58;6.05;;;;;;;8.06;79.79;98914.06;5048053;28;20127;-68
2023/01/30 02:44:29;;;;;;;30.98;5.30;;;;;;;8.11;79.16;98910.69;5052722;28;20409;-67
2023/01/30 02:47:01;;;;;;;25.52;4.50;;;;;;;7.98;79.69;98899.16;5051522;28;20025;-67
2023/01/30 02:49:37;;;;;;;32.22;5.05;;;;;;;7.84;79.47;98907.59;5051807;28;20024;-68
2023/01/30 02:52:05;;;;;;;25.95;4.25;;;;;;;7.81;78.48;98879.41;5051380;28;20025;-67
2023/01/30 02:54:31;;;;;;;34.50;4.47;;;;;;;7.91;78.81;98897.59;5050788;28;20039;-67
2023/01/30 02:56:58;;;;;;;34.20;5.55;;;;;;;8.06;78.47;98907.91;5052723;28;20447;-68
2023/01/30 02:59:38;;;;;;;37.58;5.55;;;;;;;7.90;79.19;98894.09;5052406;28;20024;-68
2023/01/30 03:02:30;;;;;;;33.50;5.57;;;;;;;7.98;80.25;98907.19;5048174;28;20072;-67
2023/01/30 03:05:21;;;;;;;32.13;5.47;;;;;;;7.96;80.96;98919.97;5052363;28;20032;-67
2023/01/30 03:07:49;;;;;;;34.25;4.75;;;;;;;7.95;80.86;98907.63;5051358;28;20488;-67
2023/01/30 03:10:21;;;;;;;40.47;6.20;;;;;;;8.00;80.15;98915.78;5052423;28;20033;-68
2023/01/30 03:12:49;;;;;;;40.10;6.47;;;;;;;7.89;79.60;98919.25;5052083;28;20052;-67
2023/01/30 03:15:33;;;;;;;30.30;5.80;;;;;;;7.83;79.30;98903.28;5051175;28;20029;-67
2023/01/30 03:18:00;;;;;;;26.25;4.53;;;;;;;7.93;79.08;98908.91;5052100;28;20492;-67
2023/01/30 03:20:27;;;;;;;19.75;3.10;;;;;;;7.88;79.71;98904.25;5054728;28;20053;-68
2023/01/30 03:22:54;;;;;;;25.85;3.72;;;;;;;7.80;79.12;98898.38;5053176;28;20029;-67
2023/01/30 03:25:25;;;;;;;31.55;4.22;;;;;;;7.96;79.30;98892.38;5051936;28;20025;-68
2023/01/30 03:27:52;;;;;;;28.80;4.05;;;;;;;7.63;79.51;98858.88;5052918;28;20040;-68
2023/01/30 03:30:18;;;;;;;41.30;5.13;;;;;;;7.84;79.49;98873.59;5054252;28;20487;-68
2023/01/30 03:32:44;;;;;;;30.33;4.75;;;;;;;7.62;80.79;98859.91;5054090;28;20060;-68
2023/01/30 03:35:09;;;;;;;23.58;4.53;;;;;;;7.78;80.51;98861.13;5051412;28;20044;-68
2023/01/30 03:37:35;;;;;;;24.70;4.30;;;;;;;7.69;80.69;98865.19;5052399;28;20111;-68
2023/01/30 03:40:01;;;;;;;30.30;4.43;;;;;;;7.75;80.44;98867.75;5033954;28;20036;-67
2023/01/30 03:42:27;;;;;;;29.65;5.60;;;;;;;7.65;81.55;98869.34;5051634;28;20395;-68
2023/01/30 03:44:52;;;;;;;29.25;4.47;;;;;;;7.65;82.35;98866.66;5052565;28;20041;-67
2023/01/30 03:47:18;;;;;;;32.20;4.82;;;;;;;7.81;81.51;98874.03;5051034;28;20017;-68
2023/01/30 03:49:43;;;;;;;31.23;4.95;;;;;;;7.68;82.57;98874.22;5050774;28;20383;-68
2023/01/30 03:52:09;;;;;;;34.42;5.45;;;;;;;7.68;82.23;98868.88;5052624;28;20049;-68
2023/01/30 03:54:34;;;;;;;24.02;3.85;;;;;;;7.69;82.37;98881.25;5050853;28;20024;-68
2023/01/30 03:57:00;;;;;;;31.13;4.45;;;;;;;7.73;81.83;98864.50;5033841;28;20716;-67
2023/01/30 03:59:25;;;;;;;34.10;5.72;;;;;;;7.86;82.37;98871.50;5052443;28;20032;-67
2023/01/30 04:01:51;;;;;;;29.70;4.82;;;;;;;7.82;82.52;98883.72;5033881;28;20024;-67
2023/01/30 04:04:17;;;;;;;22.08;4.00;;;;;;;7.50;80.95;98853.69;5052040;28;20029;-67
2023/01/30 04:06:42;;;;;;;22.00;3.90;;;;;;;7.59;80.18;98836.28;5051013;28;20063;-67
2023/01/30 04:09:08;;;;;;;21.63;2.63;;;;;;;7.58;79.21;98841.84;5051136;28;20040;-67
2023/01/30 04:11:33;;;;;;;15.88;3.08;;;;;;;7.53;79.06;98839.88;5050758;28;20044;-67
2023/01/30 04:13:58;;;;;;;18.77;2.92;;;;;;;7.47;78.05;98824.72;5051127;28;21152;-68
2023/01/30 04:16:27;;;;;;;20.52;4.10;;;;;;;7.55;77.39;98805.69;5052619;28;20037;-67
2023/01/30 04:18:52;;;;;;;18.80;3.42;;;;;;;7.38;77.84;98805.47;5050330;28;20025;-68
2023/01/30 04:21:18;;;;;;;17.58;3.90;;;;;;;7.53;76.57;98802.41;5035550;28;20487;-68
2023/01/30 04:23:44;;;;;;;14.65;2.75;;;;;;;7.30;76.70;98784.41;5054603;28;20112;-68
2023/01/30 04:26:12;;;;;;;19.67;3.35;;;;;;;7.52;76.56;98796.25;5054460;28;20440;-68
2023/01/30 04:28:38;;;;;;;27.17;3.80;;;;;;;7.44;76.20;98775.13;5054542;28;20036;-68
2023/01/30 04:31:04;;;;;;;15.60;2.83;;;;;;;7.40;76.68;98783.88;5052985;28;20021;-68
2023/01/30 04:33:29;;;;;;;23.10;4.53;;;;;;;7.29;76.10;98790.81;5054623;28;20128;-68
2023/01/30 04:35:59;;;;;;;27.15;4.53;;;;;;;7.52;75.84;98795.44;5054121;28;20029;-67
2023/01/30 04:38:26;;;;;;;22.95;3.40;;;;;;;7.39;76.38;98791.09;5054665;28;20039;-67
2023/01/30 04:40:54;;;;;;;17.70;3.63;;;;;;;7.30;76.67;98800.47;5052754;28;20040;-68
2023/01/30 04:43:21;;;;;;;22.52;4.40;;;;;;;7.38;76.05;98805.47;5052683;28;20475;-68
2023/01/30 04:45:48;;;;;;;23.00;3.70;;;;;;;7.51;76.73;98805.28;5052766;28;20487;-68
2023/01/30 04:48:15;;;;;;;29.67;4.28;;;;;;;7.53;77.45;98805.06;5052622;28;20064;-67
2023/01/30 04:50:42;;;;;;;31.95;4.93;;;;;;;7.57;77.86;98797.41;5055010;28;20052;-67
2023/01/30 04:53:08;;;;;;;32.22;3.95;;;;;;;7.63;77.99;98783.13;5055823;28;20048;-68
2023/01/30 04:55:34;;;;;;;28.85;4.78;;;;;;;7.62;78.66;98784.16;5053664;28;20107;-66
2023/01/30 04:57:59;;;;;;;28.13;4.68;;;;;;;7.57;79.06;98757.25;5052537;28;20116;-67
2023/01/30 05:00:25;;;;;;;36.65;5.80;;;;;;;7.58;79.51;98770.41;5052212;28;20029;-67
2023/01/30 05:02:51;;;;;;;28.73;4.70;;;;;;;7.75;79.93;98768.72;5053524;28;20033;-68
2023/01/30 05:05:18;;;;;;;38.83;5.82;;;;;;;7.67;80.91;98773.56;5054233;28;20035;-68
2023/01/30 05:07:43;;;;;;;33.78;5.28;;;;;;;7.67;81.79;98787.75;5037881;28;20416;-68
2023/01/30 05:10:09;;;;;;;36.58;5.65;;;;;;;7.74;81.62;98771.59;5054726;28;20032;-68
2023/01/30 05:12:35;;;;;;;33.97;5.03;;;;;;;7.71;82.32;98761.34;5053979;28;20036;-67
2023/01/30 05:15:01;;;;;;;19.63;3.83;;;;;;;7.46;82.56;98757.00;5054669;28;20024;-68
2023/01/30 05:17:26;;;;;;;31.73;4.32;;;;;;;7.74;81.97;98768.91;5053317;28;20031;-68
2023/01/30 05:19:52;;;;;;;25.95;3.65;;;;;;;7.68;81.17;98757.28;5053213;28;20072;-68
2023/01/30 05:22:17;;;;;;;26.58;3.70;;;;;;;7.48;81.25;98756.75;5035628;28;20443;-70
2023/01/30 05:24:43;;;;;;;20.83;3.38;;;;;;;7.76;80.32;98740.06;5051637;28;20149;-69
2023/01/30 05:27:08;;;;;;;26.38;3.88;;;;;;;7.58;81.51;98756.22;5053624;28;20114;-69
2023/01/30 05:29:33;;;;;;;22.35;3.60;;;;;;;7.49;81.49;98739.69;5051934;28;20078;-68
2023/01/30 05:31:59;;;;;;;18.08;3.45;;;;;;;7.49;81.85;98750.38;5050912;28;20095;-69
2023/01/30 05:34:24;;;;;;;25.00;3.92;;;;;;;7.44;81.07;98713.59;5052278;28;20032;-68
2023/01/30 05:36:50;;;;;;;35.28;5.47;;;;;;;7.41;81.39;98740.81;5053430;28;20043;-68
2023/01/30 05:39:15;;;;;;;22.02;3.42;;;;;;;7.28;81.79;98725.78;5051478;28;20032;-67
2023/01/30 05:41:40;;;;;;;22.38;3.45;;;;;;;7.56;80.78;98753.78;5053603;28;20040;-68
2023/01/30 05:44:06;;;;;;;20.95;4.20;;;;;;;7.49;81.32;98763.78;5053058;28;20127;-68
2023/01/30 05:46:32;;;;;;;16.77;3.05;;;;;;;7.47;81.06;98758.63;5053679;28;20032;-67
2023/01/30 05:48:57;;;;;;;28.10;4.47;;;;;;;7.50;81.07;98766.19;5053459;28;20033;-68
2023/01/30 05:51:24;;;;;;;22.15;3.65;;;;;;;7.36;81.12;98754.06;5053221;28;20495;-67
2023/01/30 05:53:50;;;;;;;31.38;4.82;;;;;;;7.40;80.72;98743.72;5053315;28;20553;-68
2023/01/30 05:56:16;;;;;;;23.85;3.67;;;;;;;7.41;80.36;98756.88;5034429;28;20037;-68
2023/01/30 05:58:42;;;;;;;23.67;4.47;;;;;;;7.45;79.84;98746.50;5053571;28;20021;-68
2023/01/30 06:01:11;;;;;;;25.48;4.38;;;;;;;7.47;79.77;98753.28;5053621;28;20028;-67
2023/01/30 06:03:36;;;;;;;20.55;3.60;;;;;;;7.33;80.29;98746.50;5052409;28;20032;-68
2023/01/30 06:06:04;;;;;;;32.15;4.60;;;;;;;7.38;80.54;98746.63;5050838;28;20025;-68
2023/01/30 06:08:30;;;;;;;28.35;5.13;;;;;;;7.53;80.74;98755.03;5049731;28;20033;-68
2023/01/30 06:11:04;;;;;;;20.77;3.42;;;;;;;7.45;81.50;98752.72;5049755;28;20116;-69
2023/01/30 06:13:30;;;;;;;28.77;4.90;;;;;;;7.35;82.20;98762.31;5050880;28;20040;-68
2023/01/30 06:15:56;;;;;;;25.98;3.53;;;;;;;7.43;81.32;98773.53;5049470;28;20025;-67
2023/01/30 06:18:21;;;;;;;27.27;3.85;;;;;;;7.26;82.39;98781.38;5052553;28;20048;-68
2023/01/30 06:20:48;;;;;;;22.25;3.22;;;;;;;7.31;82.48;98778.00;5055571;28;20063;-68
2023/01/30 06:23:13;;;;;;;24.67;3.88;;;;;;;7.36;82.15;98767.44;5053611;28;20036;-68
2023/01/30 06:25:42;;;;;;;24.80;4.68;;;;;;;7.47;82.57;98773.88;5052356;28;20033;-68
2023/01/30 06:28:08;;;;;;;29.38;4.72;;;;;;;7.63;82.22;98769.72;5051594;28;20116;-69
2023/01/30 06:30:33;;;;;;;29.08;4.70;;;;;;;7.58;83.05;98780.28;5051471;28;20174;-68
2023/01/30 06:33:00;;;;;;;19.50;3.72;;;;;;;7.60;84.01;98767.50;5052457;28;20036;-68
2023/01/30 06:35:25;;;;;;;29.38;4.07;;;;;;;7.73;83.69;98776.16;5052444;28;20025;-68
2023/01/30 06:37:51;;;;;;;25.92;4.55;;;;;;;7.56;84.32;98761.81;5051334;28;20047;-68
2023/01/30 06:40:16;;;;;;;31.33;5.53;;;;;;;7.50;84.16;98739.44;5034947;28;20055;-68
2023/01/30 06:42:46;;;;;;;30.48;4.43;;;;;;;7.72;84.10;98774.53;5052386;28;20053;-68
2023/01/30 06:45:13;;;;;;;26.60;3.65;;;;;;;7.73;83.28;98769.97;5053211;28;20039;-69
2023/01/30 06:47:47;;;;;;;29.73;4.80;;;;;;;7.83;82.40;98756.03;5052286;28;20039;-68
2023/01/30 06:50:13;;;;;;;24.60;3.55;;;;;;;7.50;83.62;98768.88;5052572;28;20075;-68
2023/01/30 06:52:44;;;;;;;18.55;3.38;;;;;;;7.47;83.49;98761.31;5052115;28;20040;-68
2023/01/30 06:55:11;;;;;;;20.75;3.03;;;;;;;7.51;82.30;98754.44;5052705;28;20039;-67
2023/01/30 06:57:36;;;;;;;18.80;3.28;;;;;;;7.37;81.44;98753.03;5051472;28;20476;-67
2023/01/30 07:00:07;;;;;;;13.00;2.45;;;;;;;7.45;81.30;98758.06;5050363;28;20017;-67
2023/01/30 07:02:34;;;;;;;15.43;2.47;;;;;;;7.38;81.22;98765.34;5051073;28;20390;-68
2023/01/30 07:05:05;;;;;;;18.55;4.13;;;;;;;7.27;81.77;98761.59;5052206;28;20419;-69
2023/01/30 07:07:31;;;;;;;27.98;5.97;;;;;;;7.64;80.39;98774.03;5034450;28;20032;-68
2023/01/30 07:09:57;;;;;;;24.95;4.90;;;;;;;7.52;81.31;98782.84;5050784;28;20024;-67
2023/01/30 07:12:24;;;;;;;17.95;2.90;;;;;;;7.16;81.69;98782.97;5052320;28;20020;-67
2023/01/30 07:14:51;;;;;;;23.27;3.15;;;;;;;7.42;80.57;98769.22;5050449;28;20021;-67
2023/01/30 07:17:16;;;;;;;25.00;4.57;;;;;;;7.42;80.79;98768.41;5052445;28;20078;-68
2023/01/30 07:19:42;;;;;;;16.17;3.78;;;;;;;7.25;80.42;98741.47;5051704;28;20048;-67
2023/01/30 07:22:08;;;;;;;23.17;4.25;;;;;;;7.43;80.50;98760.13;5050773;28;20090;-67
2023/01/30 07:24:33;;;;;;;23.42;3.22;;;;;;;7.43;80.43;98757.47;5049957;28;20492;-67
2023/01/30 07:26:58;;;;;;;22.35;3.38;;;;;;;7.32;80.94;98763.59;5032989;28;20418;-67
2023/01/30 07:29:24;;;;;;;26.00;3.90;;;;;;;7.38;81.58;98767.22;5051229;28;20091;-67
2023/01/30 07:31:50;;;;;;;18.05;3.45;;;;;;;7.23;81.56;98727.53;5049582;28;20029;-66
2023/01/30 07:34:16;;;;;;;19.73;3.17;;;;;;;7.21;82.34;98765.19;5048977;28;20029;-66
2023/01/30 07:36:41;;;;;;;20.90;3.20;;;;;;;7.22;82.41;98779.38;5050110;28;20033;-67
2023/01/30 07:39:08;;;;;;;22.75;3.28;;;;;;;7.34;82.13;98776.75;5049948;28;20043;-66
2023/01/30 07:41:34;;;;;;;22.67;3.78;;;;;;;7.28;82.19;98775.78;5048542;28;20032;-67
2023/01/30 07:44:00;;;;;;;23.33;4.72;;;;;;;7.24;82.61;98767.41;5047431;28;20029;-68
2023/01/30 07:46:26;;;;;;;23.02;3.95;;;;;;;7.44;81.73;98767.13;5049499;28;20087;-66
2023/01/30 07:48:51;;;;;;;22.88;3.35;;;;;;;7.48;81.64;98760.28;5051230;28;20458;-67
2023/01/30 07:51:16;;;;;;;26.02;3.88;;;;;;;7.38;81.73;98764.53;5053653;28;20067;-67
2023/01/30 07:53:42;;;;;;;23.63;3.83;;;;;;;7.41;81.67;98764.09;5052984;28;20020;-67
2023/01/30 07:56:09;;;;;;;20.50;4.18;;;;;;;7.25;82.64;98757.50;5053783;28;20025;-67
2023/01/30 07:58:35;;;;;;;21.60;2.97;;;;;;;7.31;82.32;98756.59;5055499;28;20053;-67
2023/01/30 08:01:00;;;;;;;12.90;2.97;;;;;;;7.25;81.78;98758.34;5054053;28;20483;-67
2023/01/30 08:03:26;;;;;;;15.30;2.53;;;;;;;7.37;81.63;98787.00;5055307;28;20503;-67
2023/01/30 08:05:52;;;;;;;15.80;2.42;;;;;;;7.30;81.38;98795.13;5053741;28;20486;-67
2023/01/30 08:08:18;;;;;;;18.75;2.50;;;;;;;7.43;81.05;98796.78;5055281;28;20506;-67
2023/01/30 08:10:44;;;;;;;18.67;3.00;;;;;;;7.58;80.98;98791.00;5055000;28;20033;-67
2023/01/30 08:13:09;;;;;;;17.48;3.53;;;;;;;7.47;81.08;98776.56;5053829;28;20499;-68
2023/01/30 08:15:35;;;;;;;25.67;3.65;;;;;;;7.46;81.62;98767.72;5054999;28;20053;-67
2023/01/30 08:18:00;;;;;;;22.38;3.85;;;;;;;7.52;81.41;98757.97;5055361;28;20113;-68
2023/01/30 08:20:26;;;;;;;23.13;4.20;;;;;;;7.50;81.86;98766.19;5054992;28;20444;-68
2023/01/30 08:22:53;;;;;;;27.15;4.25;;;;;;;7.63;81.70;98775.91;5055398;28;20132;-67
2023/01/30 08:25:19;;;;;;;23.08;3.88;;;;;;;7.64;81.73;98758.78;5055753;28;20025;-67
2023/01/30 08:27:46;;;;;;;24.42;3.20;;;;;;;7.61;81.90;98755.75;5054509;28;20045;-67
2023/01/30 08:30:12;;;;;;;18.55;2.45;;;;;;;7.64;81.56;98760.66;5036809;28;20040;-67
2023/01/30 08:32:37;;;;;;;26.48;3.90;;;;;;;7.71;81.25;98764.03;5053525;28;20467;-67
2023/01/30 08:35:03;;;;;;;19.73;3.15;;;;;;;7.92;80.00;98776.88;5053410;28;20032;-67
2023/01/30 08:37:28;;;;;;;15.40;2.85;;;;;;;7.72;80.38;98776.38;5054600;28;20112;-67
2023/01/30 08:39:54;;;;;;;15.18;2.17;;;;;;;7.74;80.46;98785.78;5036512;28;20476;-67
2023/01/30 08:42:19;;;;;;;14.50;3.17;;;;;;;7.67;80.64;98782.41;5053566;28;20090;-67
2023/01/30 08:44:44;;;;;;;21.73;3.33;;;;;;;7.81;79.76;98790.22;5054860;28;20033;-67
2023/01/30 08:47:10;;;;;;;22.00;2.90;;;;;;;7.78;80.27;98799.53;5053464;28;20067;-67
2023/01/30 08:49:35;;;;;;;11.45;2.58;;;;;;;7.71;80.67;98804.19;5054514;28;20119;-67
2023/01/30 08:52:01;;;;;;;21.52;3.78;;;;;;;7.72;79.85;98806.66;5054127;28;20033;-67
2023/01/30 08:54:26;;;;;;;20.85;3.03;;;;;;;7.81;79.16;98800.94;5052851;28;20513;-67
2023/01/30 08:56:52;;;;;;;19.58;4.18;;;;;;;7.78;78.98;98804.88;5036773;28;20036;-67
2023/01/30 08:59:17;;;;;;;14.88;2.20;;;;;;;7.74;79.83;98809.06;5053233;28;20057;-67
2023/01/30 09:01:42;;;;;;;18.85;3.42;;;;;;;7.59;79.44;98814.06;5054468;28;20152;-67
2023/01/30 09:04:08;;;;;;;15.10;3.15;;;;;;;7.58;78.92;98812.41;5053042;28;20075;-67
2023/01/30 09:06:33;;;;;;;18.52;4.07;;;;;;;7.84;78.00;98814.69;5051523;28;20399;-67
2023/01/30 09:08:59;;;;;;;17.88;3.17;;;;;;;7.86;78.47;98817.16;5053106;28;20404;-67
2023/01/30 09:11:24;;;;;;;16.52;2.85;;;;;;;7.66;79.63;98812.91;5055095;28;20098;-67
2023/01/30 09:13:50;;;;;;;17.52;3.28;;;;;;;7.82;79.59;98814.13;5054592;28;20147;-67
2023/01/30 09:16:15;;;;;;;21.95;3.67;;;;;;;8.00;78.92;98810.53;5053934;28;20108;-67
2023/01/30 09:18:43;;;;;;;24.77;4.15;;;;;;;7.85;79.99;98808.31;5053205;28;20395;-67
2023/01/30 09:21:10;;;;;;;24.02;3.78;;;;;;;7.94;81.10;98792.69;5055725;28;20049;-67
2023/01/30 09:23:36;;;;;;;23.92;5.20;;;;;;;8.13;80.67;98783.50;5055761;28;20048;-67
2023/01/30 09:26:02;;;;;;;27.98;4.68;;;;;;;8.18;81.73;98785.50;5055599;28;20032;-67
2023/01/30 09:28:28;;;;;;;20.33;3.75;;;;;;;8.20;80.53;98764.66;5053760;28;20043;-67
2023/01/30 09:30:58;;;;;;;15.50;3.17;;;;;;;7.98;81.01;98762.56;5035799;28;20045;-68
2023/01/30 09:33:23;;;;;;;17.30;3.00;;;;;;;8.24;79.96;98763.13;5052438;28;20491;-68
2023/01/30 09:35:49;;;;;;;15.73;3.17;;;;;;;8.21;79.11;98774.31;5053455;28;20116;-67
2023/01/30 09:38:15;;;;;;;20.75;3.70;;;;;;;8.31;79.54;98781.75;5051495;28;20392;-67
2023/01/30 09:41:07;;;;;;;23.92;4.03;;;;;;;8.42;79.54;98803.22;5053314;28;20508;-67
2023/01/30 09:43:42;;;;;;;15.18;2.90;;;;;;;8.32;79.32;98819.06;5041399;28;20036;-67
2023/01/30 09:46:26;;;;;;;13.63;2.80;;;;;;;8.22;78.60;98816.16;5052130;28;20032;-67
2023/01/30 09:49:14;;;;;;;15.80;2.30;;;;;;;7.87;78.52;98808.06;5053472;28;20028;-67
2023/01/30 09:51:48;;;;;;;11.82;2.13;;;;;;;7.94;77.73;98801.53;5053164;28;20036;-67
2023/01/30 09:54:23;;;;;;;11.43;2.08;;;;;;;8.05;77.59;98809.84;5052318;28;20079;-67
2023/01/30 09:56:57;;;;;;;19.63;2.80;;;;;;;8.06;78.91;98811.47;5054044;28;20029;-67
2023/01/30 09:59:31;;;;;;;20.95;3.08;;;;;;;7.75;79.59;98805.38;5054462;28;20098;-68
2023/01/30 10:02:14;;;;;;;17.73;2.97;;;;;;;7.82;79.91;98819.47;5053805;28;20031;-67
2023/01/30 10:04:44;;;;;;;17.02;2.65;;;;;;;7.72;78.76;98795.94;5053213;28;20032;-66
2023/01/30 10:07:22;;;;;;;18.85;2.83;;;;;;;7.58;78.16;98778.44;5053292;28;20168;-67
2023/01/30 10:10:15;;;;;;;19.08;3.08;;;;;;;7.65;79.20;98808.63;5051776;28;20052;-67
2023/01/30 10:12:50;;;;;;;15.68;2.67;;;;;;;7.68;78.76;98810.84;5053286;28;20021;-67
2023/01/30 10:15:24;;;;;;;13.38;2.42;;;;;;;7.61;78.39;98812.75;5052964;28;20050;-67
2023/01/30 10:17:52;;;;;;;21.70;2.83;;;;;;;7.70;78.08;98834.69;5052680;28;20100;-67
2023/01/30 10:21:00;;;;;;;11.45;2.25;;;;;;;7.65;78.79;98842.56;5052815;28;20037;-67
2023/01/30 10:23:57;;;;;;;10.27;2.08;;;;;;;7.44;79.77;98831.34;5053665;28;20103;-67
2023/01/30 10:26:25;;;;;;;14.93;2.58;;;;;;;7.61;79.11;98852.09;5053148;28;20090;-67
2023/01/30 10:28:54;;;;;;;19.85;2.53;;;;;;;7.84;78.46;98852.16;5051326;28;20028;-67
2023/01/30 10:31:25;;;;;;;12.57;2.40;;;;;;;7.62;78.56;98848.41;5051675;28;20036;-67
2023/01/30 10:34:10;;;;;;;15.43;2.03;;;;;;;7.66;78.82;98858.41;5052826;28;20075;-67
2023/01/30 10:37:03;;;;;;;11.90;1.80;;;;;;;7.87;78.88;98848.22;5051363;28;20032;-67
2023/01/30 10:39:46;;;;;;;14.68;1.90;;;;;;;7.85;78.75;98856.50;5052839;28;20036;-67
2023/01/30 10:42:18;;;;;;;16.10;3.25;;;;;;;7.87;77.55;98845.53;5054599;28;20051;-67
2023/01/30 10:44:46;;;;;;;12.80;1.90;;;;;;;7.82;77.08;98865.00;5052630;28;20037;-68
2023/01/30 10:47:14;;;;;;;11.68;1.95;;;;;;;7.64;76.59;98841.75;5051383;28;20407;-67
2023/01/30 10:49:44;;;;;;;12.45;1.67;;;;;;;7.89;75.28;98855.00;5051304;28;20437;-67
2023/01/30 10:52:17;;;;;;;7.60;1.48;;;;;;;7.71;75.89;98860.41;5053934;28;20032;-67
2023/01/30 10:55:04;;;;;;;14.73;2.15;;;;;;;7.61;75.79;98811.97;5053814;28;20036;-67
2023/01/30 10:57:55;;;;;;;13.95;1.70;;;;;;;7.74;75.66;98862.63;5054045;28;20123;-67
2023/01/30 11:00:38;;;;;;;11.82;2.13;;;;;;;7.64;76.13;98851.66;5052449;28;20026;-67
2023/01/30 11:03:15;;;;;;;17.80;3.40;;;;;;;7.06;76.71;98749.56;5051119;28;20104;-67
2023/01/30 11:05:53;;;;;;;15.20;2.17;;;;;;;7.77;77.17;98865.66;5052721;28;20044;-68
2023/01/30 11:08:18;;;;;;;14.93;2.47;;;;;;;7.82;77.38;98878.38;5052893;28;20050;-67
2023/01/30 11:10:44;;;;;;;12.05;2.00;;;;;;;7.82;77.80;98886.41;5052527;28;20107;-67
2023/01/30 11:13:17;;;;;;;10.45;1.90;;;;;;;7.79;77.52;98886.88;5052693;28;20040;-67
2023/01/30 11:15:45;;;;;;;9.95;1.92;;;;;;;7.83;77.16;98889.91;5052313;28;20387;-67
2023/01/30 11:18:12;;;;;;;11.30;2.03;;;;;;;7.85;77.65;98891.31;5052246;28;20102;-67
2023/01/30 11:20:44;;;;;;;10.85;2.13;;;;;;;7.89;77.79;98876.41;5052150;28;20041;-67
2023/01/30 11:23:31;;;;;;;10.80;1.77;;;;;;;7.54;78.39;98853.00;5052171;28;20412;-67
2023/01/30 11:25:57;;;;;;;14.20;2.28;;;;;;;7.71;78.30;98873.78;5052186;28;20025;-67
2023/01/30 11:28:25;;;;;;;13.20;2.08;;;;;;;7.68;77.89;98853.66;5052357;28;20033;-67
2023/01/30 11:30:59;;;;;;;15.23;2.30;;;;;;;7.77;78.73;98880.91;5053939;28;20056;-67
2023/01/30 11:33:33;;;;;;;19.08;2.28;;;;;;;7.75;79.40;98891.03;5055781;28;20118;-67
2023/01/30 11:36:05;;;;;;;19.70;2.70;;;;;;;7.69;80.23;98897.31;5056902;28;20375;-67
2023/01/30 11:38:32;;;;;;;14.77;2.80;;;;;;;7.60;79.74;98907.50;5056632;28;20032;-67
2023/01/30 11:41:09;;;;;;;14.15;2.25;;;;;;;7.63;80.51;98895.53;5056042;28;20078;-67
2023/01/30 11:43:38;;;;;;;15.73;2.40;;;;;;;7.84;79.27;98886.16;5056668;28;20338;-67
2023/01/30 11:46:06;;;;;;;16.27;2.67;;;;;;;7.53;80.58;98886.19;5054943;28;20028;-67
2023/01/30 11:48:35;;;;;;;21.25;2.58;;;;;;;7.82;80.31;98915.06;5056219;28;20056;-67